sensor_id;sensor_type;location;lat;lon;timestamp;P1;durP1;ratioP1;P2;durP2;ratioP2
20653;SDS011;21083;50.898;4.902;2023-09-18T00:01:47;19.10;;;7.00;;
20653;SDS011;21083;50.898;4.902;2023-09-18T00:04:14;22.98;;;6.20;;
20653;SDS011;21083;50.898;4.902;2023-09-18T00:06:41;13.27;;;6.15;;
20653;SDS011;21083;50.898;4.902;2023-09-18T00:09:08;16.25;;;6.55;;
20653;SDS011;21083;50.898;4.902;2023-09-18T00:11:40;14.95;;;5.78;;
20653;SDS011;21083;50.898;4.902;2023-09-18T00:14:07;16.38;;;6.03;;
20653;SDS011;21083;50.898;4.902;2023-09-18T00:16:34;16.88;;;6.97;;
20653;SDS011;21083;50.898;4.902;2023-09-18T00:19:01;14.88;;;6.03;;
20653;SDS011;21083;50.898;4.902;2023-09-18T00:21:28;14.68;;;6.78;;
20653;SDS011;21083;50.898;4.902;2023-09-18T00:23:56;15.02;;;6.18;;
20653;SDS011;21083;50.898;4.902;2023-09-18T00:26:23;10.13;;;5.07;;
20653;SDS011;21083;50.898;4.902;2023-09-18T00:28:52;16.25;;;6.15;;
20653;SDS011;21083;50.898;4.902;2023-09-18T00:31:19;19.98;;;7.20;;
20653;SDS011;21083;50.898;4.902;2023-09-18T00:33:46;16.52;;;6.45;;
20653;SDS011;21083;50.898;4.902;2023-09-18T00:36:13;14.38;;;6.70;;
20653;SDS011;21083;50.898;4.902;2023-09-18T00:38:40;16.80;;;6.35;;
20653;SDS011;21083;50.898;4.902;2023-09-18T00:41:07;14.32;;;6.30;;
20653;SDS011;21083;50.898;4.902;2023-09-18T00:43:34;17.85;;;7.22;;
20653;SDS011;21083;50.898;4.902;2023-09-18T00:46:02;17.00;;;6.45;;
20653;SDS011;21083;50.898;4.902;2023-09-18T00:48:29;19.08;;;6.97;;
20653;SDS011;21083;50.898;4.902;2023-09-18T00:50:56;16.98;;;6.10;;
20653;SDS011;21083;50.898;4.902;2023-09-18T00:53:23;17.77;;;5.93;;
20653;SDS011;21083;50.898;4.902;2023-09-18T00:55:53;24.13;;;6.63;;
20653;SDS011;21083;50.898;4.902;2023-09-18T00:58:22;15.82;;;6.22;;
20653;SDS011;21083;50.898;4.902;2023-09-18T01:00:49;18.70;;;6.85;;
20653;SDS011;21083;50.898;4.902;2023-09-18T01:03:18;18.83;;;6.88;;
20653;SDS011;21083;50.898;4.902;2023-09-18T01:05:46;14.57;;;7.03;;
20653;SDS011;21083;50.898;4.902;2023-09-18T01:08:13;13.98;;;6.47;;
20653;SDS011;21083;50.898;4.902;2023-09-18T01:10:40;18.55;;;6.40;;
20653;SDS011;21083;50.898;4.902;2023-09-18T01:13:15;18.20;;;6.10;;
20653;SDS011;21083;50.898;4.902;2023-09-18T01:15:48;14.88;;;6.05;;
20653;SDS011;21083;50.898;4.902;2023-09-18T01:18:21;17.23;;;5.80;;
20653;SDS011;21083;50.898;4.902;2023-09-18T01:20:48;13.93;;;6.75;;
20653;SDS011;21083;50.898;4.902;2023-09-18T01:23:16;14.52;;;7.07;;
20653;SDS011;21083;50.898;4.902;2023-09-18T01:25:43;16.27;;;5.78;;
20653;SDS011;21083;50.898;4.902;2023-09-18T01:28:11;13.88;;;6.40;;
20653;SDS011;21083;50.898;4.902;2023-09-18T01:30:38;15.15;;;6.32;;
20653;SDS011;21083;50.898;4.902;2023-09-18T01:33:05;16.23;;;5.78;;
20653;SDS011;21083;50.898;4.902;2023-09-18T01:35:33;23.45;;;6.78;;
20653;SDS011;21083;50.898;4.902;2023-09-18T01:38:00;20.33;;;5.85;;
20653;SDS011;21083;50.898;4.902;2023-09-18T01:40:29;16.75;;;6.78;;
20653;SDS011;21083;50.898;4.902;2023-09-18T01:42:58;25.63;;;7.68;;
20653;SDS011;21083;50.898;4.902;2023-09-18T01:45:25;20.45;;;7.18;;
20653;SDS011;21083;50.898;4.902;2023-09-18T01:47:52;20.02;;;7.30;;
20653;SDS011;21083;50.898;4.902;2023-09-18T01:50:19;16.85;;;6.55;;
20653;SDS011;21083;50.898;4.902;2023-09-18T01:52:46;19.63;;;6.60;;
20653;SDS011;21083;50.898;4.902;2023-09-18T01:55:13;18.38;;;7.32;;
20653;SDS011;21083;50.898;4.902;2023-09-18T01:57:41;15.00;;;6.70;;
20653;SDS011;21083;50.898;4.902;2023-09-18T02:00:08;16.88;;;6.60;;
20653;SDS011;21083;50.898;4.902;2023-09-18T02:02:37;22.33;;;7.07;;
20653;SDS011;21083;50.898;4.902;2023-09-18T02:05:05;18.50;;;7.07;;
20653;SDS011;21083;50.898;4.902;2023-09-18T02:07:32;16.23;;;7.32;;
20653;SDS011;21083;50.898;4.902;2023-09-18T02:09:59;19.50;;;6.65;;
20653;SDS011;21083;50.898;4.902;2023-09-18T02:12:26;29.10;;;6.95;;
20653;SDS011;21083;50.898;4.902;2023-09-18T02:14:54;16.00;;;6.00;;
20653;SDS011;21083;50.898;4.902;2023-09-18T02:17:22;19.55;;;6.22;;
20653;SDS011;21083;50.898;4.902;2023-09-18T02:19:49;13.45;;;5.05;;
20653;SDS011;21083;50.898;4.902;2023-09-18T02:22:16;12.85;;;4.90;;
20653;SDS011;21083;50.898;4.902;2023-09-18T02:24:43;10.43;;;5.15;;
20653;SDS011;21083;50.898;4.902;2023-09-18T02:27:10;13.15;;;5.72;;
20653;SDS011;21083;50.898;4.902;2023-09-18T02:29:37;15.23;;;6.25;;
20653;SDS011;21083;50.898;4.902;2023-09-18T02:32:06;18.77;;;6.10;;
20653;SDS011;21083;50.898;4.902;2023-09-18T02:34:33;15.73;;;6.20;;
20653;SDS011;21083;50.898;4.902;2023-09-18T02:36:59;14.50;;;6.07;;
20653;SDS011;21083;50.898;4.902;2023-09-18T02:39:26;15.68;;;6.55;;
20653;SDS011;21083;50.898;4.902;2023-09-18T02:41:53;12.73;;;6.07;;
20653;SDS011;21083;50.898;4.902;2023-09-18T02:44:21;18.05;;;6.72;;
20653;SDS011;21083;50.898;4.902;2023-09-18T02:46:48;21.20;;;7.47;;
20653;SDS011;21083;50.898;4.902;2023-09-18T02:49:16;16.10;;;5.88;;
20653;SDS011;21083;50.898;4.902;2023-09-18T02:51:43;16.65;;;5.20;;
20653;SDS011;21083;50.898;4.902;2023-09-18T02:54:10;11.88;;;5.05;;
20653;SDS011;21083;50.898;4.902;2023-09-18T02:56:37;11.07;;;5.07;;
20653;SDS011;21083;50.898;4.902;2023-09-18T02:59:04;11.35;;;4.55;;
20653;SDS011;21083;50.898;4.902;2023-09-18T03:01:31;14.52;;;5.18;;
20653;SDS011;21083;50.898;4.902;2023-09-18T03:03:58;11.93;;;4.72;;
20653;SDS011;21083;50.898;4.902;2023-09-18T03:06:27;18.02;;;5.53;;
20653;SDS011;21083;50.898;4.902;2023-09-18T03:08:54;16.20;;;5.60;;
20653;SDS011;21083;50.898;4.902;2023-09-18T03:11:21;12.85;;;5.10;;
20653;SDS011;21083;50.898;4.902;2023-09-18T03:13:52;12.32;;;5.05;;
20653;SDS011;21083;50.898;4.902;2023-09-18T03:16:19;15.50;;;4.85;;
20653;SDS011;21083;50.898;4.902;2023-09-18T03:18:46;12.60;;;4.72;;
20653;SDS011;21083;50.898;4.902;2023-09-18T03:21:14;8.05;;;4.50;;
20653;SDS011;21083;50.898;4.902;2023-09-18T03:23:42;14.10;;;5.18;;
20653;SDS011;21083;50.898;4.902;2023-09-18T03:26:09;10.98;;;4.53;;
20653;SDS011;21083;50.898;4.902;2023-09-18T03:28:37;11.45;;;4.43;;
20653;SDS011;21083;50.898;4.902;2023-09-18T03:31:04;10.45;;;4.32;;
20653;SDS011;21083;50.898;4.902;2023-09-18T03:33:32;12.73;;;3.95;;
20653;SDS011;21083;50.898;4.902;2023-09-18T03:35:59;13.18;;;3.67;;
20653;SDS011;21083;50.898;4.902;2023-09-18T03:38:26;9.77;;;3.65;;
20653;SDS011;21083;50.898;4.902;2023-09-18T03:40:56;13.27;;;3.08;;
20653;SDS011;21083;50.898;4.902;2023-09-18T03:43:26;9.98;;;2.95;;
20653;SDS011;21083;50.898;4.902;2023-09-18T03:45:53;9.15;;;2.80;;
20653;SDS011;21083;50.898;4.902;2023-09-18T03:48:20;9.98;;;2.75;;
20653;SDS011;21083;50.898;4.902;2023-09-18T03:50:47;5.20;;;2.22;;
20653;SDS011;21083;50.898;4.902;2023-09-18T03:53:14;6.90;;;2.08;;
20653;SDS011;21083;50.898;4.902;2023-09-18T03:55:41;8.88;;;2.47;;
20653;SDS011;21083;50.898;4.902;2023-09-18T03:58:09;5.88;;;1.95;;
20653;SDS011;21083;50.898;4.902;2023-09-18T04:00:38;6.32;;;1.90;;
20653;SDS011;21083;50.898;4.902;2023-09-18T04:03:05;6.13;;;1.92;;
20653;SDS011;21083;50.898;4.902;2023-09-18T04:05:31;12.30;;;2.45;;
20653;SDS011;21083;50.898;4.902;2023-09-18T04:07:58;7.18;;;1.90;;
20653;SDS011;21083;50.898;4.902;2023-09-18T04:10:25;4.82;;;1.52;;
20653;SDS011;21083;50.898;4.902;2023-09-18T04:12:52;7.40;;;1.75;;
20653;SDS011;21083;50.898;4.902;2023-09-18T04:15:21;4.90;;;1.52;;
20653;SDS011;21083;50.898;4.902;2023-09-18T04:17:48;7.47;;;1.55;;
20653;SDS011;21083;50.898;4.902;2023-09-18T04:20:15;9.50;;;1.77;;
20653;SDS011;21083;50.898;4.902;2023-09-18T04:22:43;5.13;;;1.77;;
20653;SDS011;21083;50.898;4.902;2023-09-18T04:25:11;8.05;;;2.05;;
20653;SDS011;21083;50.898;4.902;2023-09-18T04:27:38;8.05;;;1.63;;
20653;SDS011;21083;50.898;4.902;2023-09-18T04:30:06;8.05;;;1.80;;
20653;SDS011;21083;50.898;4.902;2023-09-18T04:32:35;5.82;;;1.83;;
20653;SDS011;21083;50.898;4.902;2023-09-18T04:35:03;4.13;;;1.30;;
20653;SDS011;21083;50.898;4.902;2023-09-18T04:37:33;6.65;;;1.45;;
20653;SDS011;21083;50.898;4.902;2023-09-18T04:40:02;7.47;;;1.77;;
20653;SDS011;21083;50.898;4.902;2023-09-18T04:42:34;7.50;;;1.80;;
20653;SDS011;21083;50.898;4.902;2023-09-18T04:45:01;5.65;;;1.70;;
20653;SDS011;21083;50.898;4.902;2023-09-18T04:47:29;5.93;;;1.88;;
20653;SDS011;21083;50.898;4.902;2023-09-18T04:49:57;6.68;;;1.30;;
20653;SDS011;21083;50.898;4.902;2023-09-18T04:52:24;6.97;;;1.83;;
20653;SDS011;21083;50.898;4.902;2023-09-18T04:54:51;7.72;;;1.67;;
20653;SDS011;21083;50.898;4.902;2023-09-18T04:57:19;4.85;;;1.90;;
20653;SDS011;21083;50.898;4.902;2023-09-18T04:59:47;8.82;;;1.63;;
20653;SDS011;21083;50.898;4.902;2023-09-18T05:02:14;9.75;;;1.70;;
20653;SDS011;21083;50.898;4.902;2023-09-18T05:04:41;7.28;;;1.90;;
20653;SDS011;21083;50.898;4.902;2023-09-18T05:07:09;4.90;;;1.73;;
20653;SDS011;21083;50.898;4.902;2023-09-18T05:09:36;7.90;;;1.98;;
20653;SDS011;21083;50.898;4.902;2023-09-18T05:12:05;8.52;;;2.05;;
20653;SDS011;21083;50.898;4.902;2023-09-18T05:14:38;7.97;;;1.90;;
20653;SDS011;21083;50.898;4.902;2023-09-18T05:17:05;7.63;;;2.10;;
20653;SDS011;21083;50.898;4.902;2023-09-18T05:19:33;12.23;;;2.13;;
20653;SDS011;21083;50.898;4.902;2023-09-18T05:21:59;9.07;;;1.70;;
20653;SDS011;21083;50.898;4.902;2023-09-18T05:24:28;11.23;;;1.90;;
20653;SDS011;21083;50.898;4.902;2023-09-18T05:26:55;10.05;;;2.15;;
20653;SDS011;21083;50.898;4.902;2023-09-18T05:29:22;6.35;;;1.92;;
20653;SDS011;21083;50.898;4.902;2023-09-18T05:31:49;7.28;;;1.80;;
20653;SDS011;21083;50.898;4.902;2023-09-18T05:34:16;7.10;;;1.77;;
20653;SDS011;21083;50.898;4.902;2023-09-18T05:36:43;6.32;;;1.75;;
20653;SDS011;21083;50.898;4.902;2023-09-18T05:39:10;8.90;;;2.00;;
20653;SDS011;21083;50.898;4.902;2023-09-18T05:41:39;7.45;;;2.38;;
20653;SDS011;21083;50.898;4.902;2023-09-18T05:44:06;4.43;;;1.50;;
20653;SDS011;21083;50.898;4.902;2023-09-18T05:46:34;10.63;;;2.88;;
20653;SDS011;21083;50.898;4.902;2023-09-18T05:49:01;7.43;;;2.10;;
20653;SDS011;21083;50.898;4.902;2023-09-18T05:51:29;5.72;;;2.08;;
20653;SDS011;21083;50.898;4.902;2023-09-18T05:53:56;14.20;;;2.70;;
20653;SDS011;21083;50.898;4.902;2023-09-18T05:56:23;7.22;;;2.15;;
20653;SDS011;21083;50.898;4.902;2023-09-18T05:58:52;15.05;;;2.38;;
20653;SDS011;21083;50.898;4.902;2023-09-18T06:01:20;6.35;;;1.70;;
20653;SDS011;21083;50.898;4.902;2023-09-18T06:03:47;8.30;;;2.25;;
20653;SDS011;21083;50.898;4.902;2023-09-18T06:06:14;6.80;;;1.90;;
20653;SDS011;21083;50.898;4.902;2023-09-18T06:08:41;7.70;;;1.73;;
20653;SDS011;21083;50.898;4.902;2023-09-18T06:11:08;7.25;;;1.67;;
20653;SDS011;21083;50.898;4.902;2023-09-18T06:13:35;11.00;;;2.22;;
20653;SDS011;21083;50.898;4.902;2023-09-18T06:16:04;6.75;;;1.80;;
20653;SDS011;21083;50.898;4.902;2023-09-18T06:18:33;8.15;;;1.90;;
20653;SDS011;21083;50.898;4.902;2023-09-18T06:21:03;9.73;;;2.00;;
20653;SDS011;21083;50.898;4.902;2023-09-18T06:23:30;9.90;;;2.75;;
20653;SDS011;21083;50.898;4.902;2023-09-18T06:25:57;9.23;;;2.10;;
20653;SDS011;21083;50.898;4.902;2023-09-18T06:28:24;7.38;;;1.63;;
20653;SDS011;21083;50.898;4.902;2023-09-18T06:30:51;9.15;;;1.85;;
20653;SDS011;21083;50.898;4.902;2023-09-18T06:33:20;8.38;;;1.92;;
20653;SDS011;21083;50.898;4.902;2023-09-18T06:35:47;8.77;;;2.00;;
20653;SDS011;21083;50.898;4.902;2023-09-18T06:38:14;8.88;;;2.03;;
20653;SDS011;21083;50.898;4.902;2023-09-18T06:40:41;6.22;;;2.00;;
20653;SDS011;21083;50.898;4.902;2023-09-18T06:43:08;7.30;;;1.65;;
20653;SDS011;21083;50.898;4.902;2023-09-18T06:45:35;8.25;;;2.35;;
20653;SDS011;21083;50.898;4.902;2023-09-18T06:48:03;8.57;;;2.00;;
20653;SDS011;21083;50.898;4.902;2023-09-18T06:50:32;7.97;;;2.08;;
20653;SDS011;21083;50.898;4.902;2023-09-18T06:52:59;10.70;;;2.22;;
20653;SDS011;21083;50.898;4.902;2023-09-18T06:55:26;8.85;;;2.10;;
20653;SDS011;21083;50.898;4.902;2023-09-18T06:57:53;6.25;;;1.95;;
20653;SDS011;21083;50.898;4.902;2023-09-18T07:00:20;8.80;;;2.40;;
20653;SDS011;21083;50.898;4.902;2023-09-18T07:02:47;11.73;;;2.05;;
20653;SDS011;21083;50.898;4.902;2023-09-18T07:05:14;5.88;;;2.05;;
20653;SDS011;21083;50.898;4.902;2023-09-18T07:07:42;11.25;;;2.35;;
20653;SDS011;21083;50.898;4.902;2023-09-18T07:10:10;12.23;;;2.50;;
20653;SDS011;21083;50.898;4.902;2023-09-18T07:12:37;7.22;;;2.22;;
20653;SDS011;21083;50.898;4.902;2023-09-18T07:15:04;9.18;;;2.47;;
20653;SDS011;21083;50.898;4.902;2023-09-18T07:17:32;10.40;;;2.85;;
20653;SDS011;21083;50.898;4.902;2023-09-18T07:20:00;7.88;;;2.45;;
20653;SDS011;21083;50.898;4.902;2023-09-18T07:22:34;6.57;;;1.98;;
20653;SDS011;21083;50.898;4.902;2023-09-18T07:25:03;10.50;;;2.60;;
20653;SDS011;21083;50.898;4.902;2023-09-18T07:27:30;7.53;;;1.88;;
20653;SDS011;21083;50.898;4.902;2023-09-18T07:29:57;7.50;;;2.30;;
20653;SDS011;21083;50.898;4.902;2023-09-18T07:32:24;7.25;;;2.05;;
20653;SDS011;21083;50.898;4.902;2023-09-18T07:34:53;10.10;;;2.17;;
20653;SDS011;21083;50.898;4.902;2023-09-18T07:37:21;7.72;;;2.05;;
20653;SDS011;21083;50.898;4.902;2023-09-18T07:39:48;7.72;;;2.13;;
20653;SDS011;21083;50.898;4.902;2023-09-18T07:42:17;9.27;;;2.85;;
20653;SDS011;21083;50.898;4.902;2023-09-18T07:44:45;10.02;;;2.80;;
20653;SDS011;21083;50.898;4.902;2023-09-18T07:47:12;7.05;;;2.30;;
20653;SDS011;21083;50.898;4.902;2023-09-18T07:49:39;6.90;;;2.47;;
20653;SDS011;21083;50.898;4.902;2023-09-18T07:52:05;7.28;;;2.13;;
20653;SDS011;21083;50.898;4.902;2023-09-18T07:54:32;6.10;;;2.20;;
20653;SDS011;21083;50.898;4.902;2023-09-18T07:56:59;7.15;;;2.35;;
20653;SDS011;21083;50.898;4.902;2023-09-18T07:59:28;10.57;;;2.75;;
20653;SDS011;21083;50.898;4.902;2023-09-18T08:01:55;6.97;;;2.40;;
20653;SDS011;21083;50.898;4.902;2023-09-18T08:04:23;7.97;;;2.08;;
20653;SDS011;21083;50.898;4.902;2023-09-18T08:06:49;8.15;;;2.20;;
20653;SDS011;21083;50.898;4.902;2023-09-18T08:09:17;10.18;;;2.35;;
20653;SDS011;21083;50.898;4.902;2023-09-18T08:11:44;8.13;;;2.42;;
20653;SDS011;21083;50.898;4.902;2023-09-18T08:14:11;9.02;;;2.20;;
20653;SDS011;21083;50.898;4.902;2023-09-18T08:16:39;7.30;;;2.58;;
20653;SDS011;21083;50.898;4.902;2023-09-18T08:19:06;9.25;;;2.83;;
20653;SDS011;21083;50.898;4.902;2023-09-18T08:21:34;8.20;;;2.28;;
20653;SDS011;21083;50.898;4.902;2023-09-18T08:24:01;9.38;;;2.58;;
20653;SDS011;21083;50.898;4.902;2023-09-18T08:26:28;8.50;;;2.30;;
20653;SDS011;21083;50.898;4.902;2023-09-18T08:28:55;7.50;;;1.75;;
20653;SDS011;21083;50.898;4.902;2023-09-18T08:31:22;12.00;;;2.60;;
20653;SDS011;21083;50.898;4.902;2023-09-18T08:33:50;8.63;;;2.38;;
20653;SDS011;21083;50.898;4.902;2023-09-18T08:36:17;6.03;;;1.92;;
20653;SDS011;21083;50.898;4.902;2023-09-18T08:38:44;10.30;;;2.25;;
20653;SDS011;21083;50.898;4.902;2023-09-18T08:41:12;7.72;;;2.60;;
20653;SDS011;21083;50.898;4.902;2023-09-18T08:43:40;7.10;;;2.42;;
20653;SDS011;21083;50.898;4.902;2023-09-18T08:46:09;6.22;;;2.30;;
20653;SDS011;21083;50.898;4.902;2023-09-18T08:48:37;6.93;;;2.30;;
20653;SDS011;21083;50.898;4.902;2023-09-18T08:51:06;12.40;;;2.70;;
20653;SDS011;21083;50.898;4.902;2023-09-18T08:53:35;9.27;;;2.30;;
20653;SDS011;21083;50.898;4.902;2023-09-18T08:56:03;10.32;;;3.22;;
20653;SDS011;21083;50.898;4.902;2023-09-18T08:58:31;10.50;;;2.75;;
20653;SDS011;21083;50.898;4.902;2023-09-18T09:01:00;9.73;;;2.55;;
20653;SDS011;21083;50.898;4.902;2023-09-18T09:03:28;12.90;;;3.22;;
20653;SDS011;21083;50.898;4.902;2023-09-18T09:05:56;9.80;;;2.95;;
20653;SDS011;21083;50.898;4.902;2023-09-18T09:08:27;9.35;;;2.45;;
20653;SDS011;21083;50.898;4.902;2023-09-18T09:10:54;10.15;;;2.78;;
20653;SDS011;21083;50.898;4.902;2023-09-18T09:13:23;10.65;;;2.55;;
20653;SDS011;21083;50.898;4.902;2023-09-18T09:15:51;8.15;;;2.38;;
20653;SDS011;21083;50.898;4.902;2023-09-18T09:18:21;7.90;;;2.90;;
20653;SDS011;21083;50.898;4.902;2023-09-18T09:20:55;10.45;;;2.85;;
20653;SDS011;21083;50.898;4.902;2023-09-18T09:23:29;8.23;;;3.03;;
20653;SDS011;21083;50.898;4.902;2023-09-18T09:26:14;7.75;;;2.65;;
20653;SDS011;21083;50.898;4.902;2023-09-18T09:28:42;11.77;;;2.92;;
20653;SDS011;21083;50.898;4.902;2023-09-18T09:31:10;7.72;;;3.22;;
20653;SDS011;21083;50.898;4.902;2023-09-18T09:33:50;9.63;;;2.55;;
20653;SDS011;21083;50.898;4.902;2023-09-18T09:36:19;8.95;;;2.80;;
20653;SDS011;21083;50.898;4.902;2023-09-18T09:38:47;8.93;;;2.88;;
20653;SDS011;21083;50.898;4.902;2023-09-18T09:41:14;10.43;;;2.83;;
20653;SDS011;21083;50.898;4.902;2023-09-18T09:43:43;9.40;;;2.88;;
20653;SDS011;21083;50.898;4.902;2023-09-18T09:46:14;8.38;;;2.85;;
20653;SDS011;21083;50.898;4.902;2023-09-18T09:48:57;9.50;;;2.72;;
20653;SDS011;21083;50.898;4.902;2023-09-18T09:51:26;7.97;;;2.90;;
20653;SDS011;21083;50.898;4.902;2023-09-18T09:53:58;9.15;;;2.83;;
20653;SDS011;21083;50.898;4.902;2023-09-18T09:56:41;11.40;;;2.58;;
20653;SDS011;21083;50.898;4.902;2023-09-18T09:59:10;10.43;;;2.88;;
20653;SDS011;21083;50.898;4.902;2023-09-18T10:01:39;8.90;;;2.70;;
20653;SDS011;21083;50.898;4.902;2023-09-18T10:04:09;8.27;;;2.83;;
20653;SDS011;21083;50.898;4.902;2023-09-18T10:06:38;9.52;;;2.90;;
20653;SDS011;21083;50.898;4.902;2023-09-18T10:09:11;8.77;;;2.58;;
20653;SDS011;21083;50.898;4.902;2023-09-18T10:11:40;8.25;;;3.10;;
20653;SDS011;21083;50.898;4.902;2023-09-18T10:14:12;9.90;;;3.17;;
20653;SDS011;21083;50.898;4.902;2023-09-18T10:16:42;9.75;;;2.78;;
20653;SDS011;21083;50.898;4.902;2023-09-18T10:19:17;10.13;;;2.97;;
20653;SDS011;21083;50.898;4.902;2023-09-18T10:21:53;11.00;;;2.70;;
20653;SDS011;21083;50.898;4.902;2023-09-18T10:24:33;7.88;;;2.80;;
20653;SDS011;21083;50.898;4.902;2023-09-18T10:27:02;14.73;;;2.88;;
20653;SDS011;21083;50.898;4.902;2023-09-18T10:29:32;7.38;;;2.60;;
20653;SDS011;21083;50.898;4.902;2023-09-18T10:31:59;10.50;;;3.05;;
20653;SDS011;21083;50.898;4.902;2023-09-18T10:34:30;8.43;;;2.80;;
20653;SDS011;21083;50.898;4.902;2023-09-18T10:36:59;11.43;;;3.10;;
20653;SDS011;21083;50.898;4.902;2023-09-18T10:39:28;7.75;;;2.58;;
20653;SDS011;21083;50.898;4.902;2023-09-18T10:41:58;8.20;;;2.60;;
20653;SDS011;21083;50.898;4.902;2023-09-18T10:44:29;9.68;;;2.70;;
20653;SDS011;21083;50.898;4.902;2023-09-18T10:46:56;7.63;;;2.60;;
20653;SDS011;21083;50.898;4.902;2023-09-18T10:49:25;8.55;;;2.70;;
20653;SDS011;21083;50.898;4.902;2023-09-18T10:51:53;9.90;;;2.83;;
20653;SDS011;21083;50.898;4.902;2023-09-18T10:54:22;9.57;;;2.78;;
20653;SDS011;21083;50.898;4.902;2023-09-18T10:56:51;7.35;;;2.60;;
20653;SDS011;21083;50.898;4.902;2023-09-18T10:59:20;8.05;;;2.70;;
20653;SDS011;21083;50.898;4.902;2023-09-18T11:01:48;8.82;;;2.38;;
20653;SDS011;21083;50.898;4.902;2023-09-18T11:04:17;7.85;;;2.30;;
20653;SDS011;21083;50.898;4.902;2023-09-18T11:07:01;8.35;;;2.00;;
20653;SDS011;21083;50.898;4.902;2023-09-18T11:09:30;8.30;;;2.50;;
20653;SDS011;21083;50.898;4.902;2023-09-18T11:12:02;8.65;;;2.25;;
20653;SDS011;21083;50.898;4.902;2023-09-18T11:14:48;8.70;;;2.60;;
20653;SDS011;21083;50.898;4.902;2023-09-18T11:17:28;7.65;;;2.30;;
20653;SDS011;21083;50.898;4.902;2023-09-18T11:20:03;11.32;;;2.78;;
20653;SDS011;21083;50.898;4.902;2023-09-18T11:22:34;5.68;;;2.40;;
20653;SDS011;21083;50.898;4.902;2023-09-18T11:28:00;5.93;;;2.40;;
20653;SDS011;21083;50.898;4.902;2023-09-18T11:30:29;7.13;;;2.17;;
20653;SDS011;21083;50.898;4.902;2023-09-18T11:32:58;6.35;;;2.30;;
20653;SDS011;21083;50.898;4.902;2023-09-18T11:35:25;14.15;;;3.40;;
20653;SDS011;21083;50.898;4.902;2023-09-18T11:38:02;8.52;;;2.38;;
20653;SDS011;21083;50.898;4.902;2023-09-18T11:40:32;11.57;;;2.38;;
20653;SDS011;21083;50.898;4.902;2023-09-18T11:43:19;11.77;;;2.45;;
20653;SDS011;21083;50.898;4.902;2023-09-18T11:45:52;9.02;;;2.83;;
20653;SDS011;21083;50.898;4.902;2023-09-18T11:48:20;8.85;;;2.45;;
20653;SDS011;21083;50.898;4.902;2023-09-18T11:50:49;10.98;;;2.88;;
20653;SDS011;21083;50.898;4.902;2023-09-18T11:53:19;9.32;;;3.03;;
20653;SDS011;21083;50.898;4.902;2023-09-18T11:55:47;9.10;;;2.92;;
20653;SDS011;21083;50.898;4.902;2023-09-18T11:58:14;8.65;;;2.63;;
20653;SDS011;21083;50.898;4.902;2023-09-18T12:00:41;9.18;;;2.97;;
20653;SDS011;21083;50.898;4.902;2023-09-18T12:03:16;6.32;;;2.65;;
20653;SDS011;21083;50.898;4.902;2023-09-18T12:05:48;9.65;;;3.47;;
20653;SDS011;21083;50.898;4.902;2023-09-18T12:08:24;8.23;;;2.60;;
20653;SDS011;21083;50.898;4.902;2023-09-18T12:10:52;5.22;;;2.40;;
20653;SDS011;21083;50.898;4.902;2023-09-18T12:13:19;7.57;;;2.40;;
20653;SDS011;21083;50.898;4.902;2023-09-18T12:15:47;9.00;;;2.70;;
20653;SDS011;21083;50.898;4.902;2023-09-18T12:18:16;8.25;;;2.40;;
20653;SDS011;21083;50.898;4.902;2023-09-18T12:20:46;9.73;;;2.65;;
20653;SDS011;21083;50.898;4.902;2023-09-18T12:23:14;9.07;;;2.72;;
20653;SDS011;21083;50.898;4.902;2023-09-18T12:25:42;6.68;;;2.25;;
20653;SDS011;21083;50.898;4.902;2023-09-18T12:28:12;9.90;;;2.45;;
20653;SDS011;21083;50.898;4.902;2023-09-18T12:30:41;7.82;;;2.13;;
20653;SDS011;21083;50.898;4.902;2023-09-18T12:33:08;7.43;;;2.22;;
20653;SDS011;21083;50.898;4.902;2023-09-18T12:35:37;6.70;;;2.38;;
20653;SDS011;21083;50.898;4.902;2023-09-18T12:38:13;10.35;;;2.17;;
20653;SDS011;21083;50.898;4.902;2023-09-18T12:40:41;7.10;;;2.35;;
20653;SDS011;21083;50.898;4.902;2023-09-18T12:43:09;10.70;;;2.35;;
20653;SDS011;21083;50.898;4.902;2023-09-18T12:45:37;7.57;;;2.63;;
20653;SDS011;21083;50.898;4.902;2023-09-18T12:48:05;35.50;;;5.65;;
20653;SDS011;21083;50.898;4.902;2023-09-18T12:50:32;6.85;;;2.22;;
20653;SDS011;21083;50.898;4.902;2023-09-18T12:53:09;5.65;;;2.03;;
20653;SDS011;21083;50.898;4.902;2023-09-18T12:55:37;11.82;;;2.65;;
20653;SDS011;21083;50.898;4.902;2023-09-18T12:58:05;12.43;;;2.95;;
20653;SDS011;21083;50.898;4.902;2023-09-18T13:00:33;5.30;;;1.65;;
20653;SDS011;21083;50.898;4.902;2023-09-18T13:03:00;9.32;;;2.40;;
20653;SDS011;21083;50.898;4.902;2023-09-18T13:05:29;6.20;;;2.25;;
20653;SDS011;21083;50.898;4.902;2023-09-18T13:08:01;166.88;;;23.15;;
20653;SDS011;21083;50.898;4.902;2023-09-18T13:10:31;5.07;;;1.92;;
20653;SDS011;21083;50.898;4.902;2023-09-18T13:13:07;4.90;;;1.80;;
20653;SDS011;21083;50.898;4.902;2023-09-18T13:15:41;8.50;;;2.15;;
20653;SDS011;21083;50.898;4.902;2023-09-18T13:18:11;8.27;;;1.60;;
20653;SDS011;21083;50.898;4.902;2023-09-18T13:20:38;6.45;;;1.83;;
20653;SDS011;21083;50.898;4.902;2023-09-18T13:23:06;8.43;;;2.10;;
20653;SDS011;21083;50.898;4.902;2023-09-18T13:25:35;4.32;;;1.63;;
20653;SDS011;21083;50.898;4.902;2023-09-18T13:28:04;5.93;;;1.80;;
20653;SDS011;21083;50.898;4.902;2023-09-18T13:30:33;6.07;;;1.73;;
20653;SDS011;21083;50.898;4.902;2023-09-18T13:33:05;6.95;;;1.85;;
20653;SDS011;21083;50.898;4.902;2023-09-18T13:35:32;5.53;;;2.20;;
20653;SDS011;21083;50.898;4.902;2023-09-18T13:38:00;8.27;;;1.88;;
20653;SDS011;21083;50.898;4.902;2023-09-18T13:40:29;7.35;;;1.95;;
20653;SDS011;21083;50.898;4.902;2023-09-18T13:42:57;4.07;;;1.60;;
20653;SDS011;21083;50.898;4.902;2023-09-18T13:45:24;5.47;;;1.50;;
20653;SDS011;21083;50.898;4.902;2023-09-18T13:47:51;7.50;;;2.05;;
20653;SDS011;21083;50.898;4.902;2023-09-18T13:50:19;4.95;;;1.67;;
20653;SDS011;21083;50.898;4.902;2023-09-18T13:52:46;5.43;;;1.70;;
20653;SDS011;21083;50.898;4.902;2023-09-18T13:55:13;8.75;;;1.90;;
20653;SDS011;21083;50.898;4.902;2023-09-18T13:57:40;5.07;;;1.73;;
20653;SDS011;21083;50.898;4.902;2023-09-18T14:00:09;14.18;;;2.40;;
20653;SDS011;21083;50.898;4.902;2023-09-18T14:02:37;10.98;;;2.13;;
20653;SDS011;21083;50.898;4.902;2023-09-18T14:05:05;6.10;;;1.70;;
20653;SDS011;21083;50.898;4.902;2023-09-18T14:07:33;12.60;;;2.30;;
20653;SDS011;21083;50.898;4.902;2023-09-18T14:10:00;5.53;;;2.20;;
20653;SDS011;21083;50.898;4.902;2023-09-18T14:12:29;6.97;;;1.65;;
20653;SDS011;21083;50.898;4.902;2023-09-18T14:14:57;10.00;;;1.98;;
20653;SDS011;21083;50.898;4.902;2023-09-18T14:17:26;3.92;;;1.65;;
20653;SDS011;21083;50.898;4.902;2023-09-18T14:19:53;10.02;;;1.50;;
20653;SDS011;21083;50.898;4.902;2023-09-18T14:22:20;6.90;;;1.70;;
20653;SDS011;21083;50.898;4.902;2023-09-18T14:24:47;6.43;;;1.92;;
20653;SDS011;21083;50.898;4.902;2023-09-18T14:27:14;6.07;;;1.45;;
20653;SDS011;21083;50.898;4.902;2023-09-18T14:29:41;7.40;;;2.00;;
20653;SDS011;21083;50.898;4.902;2023-09-18T14:32:08;4.07;;;1.55;;
20653;SDS011;21083;50.898;4.902;2023-09-18T14:34:38;8.82;;;2.08;;
20653;SDS011;21083;50.898;4.902;2023-09-18T14:37:05;6.75;;;1.70;;
20653;SDS011;21083;50.898;4.902;2023-09-18T14:39:32;4.07;;;1.55;;
20653;SDS011;21083;50.898;4.902;2023-09-18T14:41:59;6.65;;;1.63;;
20653;SDS011;21083;50.898;4.902;2023-09-18T14:44:26;11.75;;;1.65;;
20653;SDS011;21083;50.898;4.902;2023-09-18T14:46:55;9.57;;;2.08;;
20653;SDS011;21083;50.898;4.902;2023-09-18T14:49:22;9.10;;;1.77;;
20653;SDS011;21083;50.898;4.902;2023-09-18T14:51:50;6.82;;;1.67;;
20653;SDS011;21083;50.898;4.902;2023-09-18T14:54:19;6.05;;;1.70;;